sensor_id;sensor_type;location;lat;lon;timestamp;temperature;humidity
82126;DHT22;71668;51.400;6.758;2024-01-06T12:54:41;5.40;99.90
82126;DHT22;71668;51.400;6.758;2024-01-06T12:57:12;5.50;99.90
82126;DHT22;71668;51.400;6.758;2024-01-06T12:59:38;5.50;99.90
82126;DHT22;71668;51.400;6.758;2024-01-06T13:02:05;5.40;99.90
82126;DHT22;71668;51.400;6.758;2024-01-06T13:04:32;5.40;99.90
82126;DHT22;71668;51.400;6.758;2024-01-06T13:06:59;5.40;99.90
82126;DHT22;71668;51.400;6.758;2024-01-06T13:09:32;5.40;99.90
82126;DHT22;71668;51.400;6.758;2024-01-06T13:11:59;5.40;99.90
82126;DHT22;71668;51.400;6.758;2024-01-06T13:14:27;5.40;99.90
82126;DHT22;71668;51.400;6.758;2024-01-06T13:16:56;5.40;99.90
82126;DHT22;71668;51.400;6.758;2024-01-06T13:19:24;5.40;99.90
82126;DHT22;71668;51.400;6.758;2024-01-06T13:21:51;5.40;99.90
82126;DHT22;71668;51.400;6.758;2024-01-06T13:24:19;5.40;99.90
82126;DHT22;71668;51.400;6.758;2024-01-06T13:26:46;5.40;99.90
82126;DHT22;71668;51.400;6.758;2024-01-06T13:29:13;5.40;99.90
82126;DHT22;71668;51.400;6.758;2024-01-06T13:31:40;5.40;99.90
82126;DHT22;71668;51.400;6.758;2024-01-06T13:34:07;5.40;99.90
82126;DHT22;71668;51.400;6.758;2024-01-06T13:36:34;5.40;99.90
82126;DHT22;71668;51.400;6.758;2024-01-06T13:39:02;5.40;99.90
82126;DHT22;71668;51.400;6.758;2024-01-06T13:41:30;5.40;99.90
82126;DHT22;71668;51.400;6.758;2024-01-06T13:43:57;5.30;99.90
82126;DHT22;71668;51.400;6.758;2024-01-06T13:46:24;5.30;99.90
82126;DHT22;71668;51.400;6.758;2024-01-06T13:48:51;5.30;99.90
82126;DHT22;71668;51.400;6.758;2024-01-06T13:51:18;5.30;99.90
82126;DHT22;71668;51.400;6.758;2024-01-06T13:53:45;5.30;99.90
82126;DHT22;71668;51.400;6.758;2024-01-06T13:56:12;5.30;99.90
82126;DHT22;71668;51.400;6.758;2024-01-06T13:58:39;5.30;99.90
82126;DHT22;71668;51.400;6.758;2024-01-06T14:01:06;5.30;99.90
82126;DHT22;71668;51.400;6.758;2024-01-06T14:03:35;5.30;99.90
82126;DHT22;71668;51.400;6.758;2024-01-06T14:06:02;5.30;99.90
82126;DHT22;71668;51.400;6.758;2024-01-06T14:08:29;5.30;99.90
82126;DHT22;71668;51.400;6.758;2024-01-06T14:10:56;5.20;99.90
82126;DHT22;71668;51.400;6.758;2024-01-06T14:13:23;5.20;99.90
82126;DHT22;71668;51.400;6.758;2024-01-06T14:15:50;5.20;99.90
82126;DHT22;71668;51.400;6.758;2024-01-06T14:18:17;5.20;99.90
82126;DHT22;71668;51.400;6.758;2024-01-06T14:20:44;5.20;99.90
82126;DHT22;71668;51.400;6.758;2024-01-06T14:23:11;5.20;99.90
82126;DHT22;71668;51.400;6.758;2024-01-06T14:25:38;5.20;99.90
82126;DHT22;71668;51.400;6.758;2024-01-06T14:28:05;5.20;99.90
82126;DHT22;71668;51.400;6.758;2024-01-06T14:30:35;5.10;99.90
82126;DHT22;71668;51.400;6.758;2024-01-06T14:33:02;5.10;99.90
82126;DHT22;71668;51.400;6.758;2024-01-06T14:35:29;5.20;99.90
82126;DHT22;71668;51.400;6.758;2024-01-06T14:37:56;5.10;99.90
82126;DHT22;71668;51.400;6.758;2024-01-06T14:40:23;5.10;99.90
82126;DHT22;71668;51.400;6.758;2024-01-06T14:42:51;5.10;99.90
82126;DHT22;71668;51.400;6.758;2024-01-06T14:45:18;5.10;99.90
82126;DHT22;71668;51.400;6.758;2024-01-06T14:47:45;5.00;99.90
82126;DHT22;71668;51.400;6.758;2024-01-06T14:50:17;5.00;99.90
82126;DHT22;71668;51.400;6.758;2024-01-06T14:52:44;5.00;99.90
82126;DHT22;71668;51.400;6.758;2024-01-06T14:55:10;4.90;99.90
82126;DHT22;71668;51.400;6.758;2024-01-06T14:57:38;4.90;99.90
82126;DHT22;71668;51.400;6.758;2024-01-06T15:00:05;4.90;99.90
82126;DHT22;71668;51.400;6.758;2024-01-06T15:02:33;4.90;99.90
82126;DHT22;71668;51.400;6.758;2024-01-06T15:04:59;4.90;99.90
82126;DHT22;71668;51.400;6.758;2024-01-06T15:07:26;4.90;99.90
82126;DHT22;71668;51.400;6.758;2024-01-06T15:09:53;4.90;99.90
82126;DHT22;71668;51.400;6.758;2024-01-06T15:12:20;4.90;99.90
82126;DHT22;71668;51.400;6.758;2024-01-06T15:14:47;4.90;99.90
82126;DHT22;71668;51.400;6.758;2024-01-06T15:17:14;4.90;99.90
82126;DHT22;71668;51.400;6.758;2024-01-06T15:19:41;4.90;99.90
82126;DHT22;71668;51.400;6.758;2024-01-06T15:22:08;4.80;99.90
82126;DHT22;71668;51.400;6.758;2024-01-06T15:24:35;4.80;99.90
82126;DHT22;71668;51.400;6.758;2024-01-06T15:27:02;4.80;99.90
82126;DHT22;71668;51.400;6.758;2024-01-06T15:29:29;4.80;99.90
82126;DHT22;71668;51.400;6.758;2024-01-06T15:31:56;4.80;99.90
82126;DHT22;71668;51.400;6.758;2024-01-06T15:34:24;4.80;99.90
82126;DHT22;71668;51.400;6.758;2024-01-06T15:36:51;4.80;99.90
82126;DHT22;71668;51.400;6.758;2024-01-06T15:39:18;4.80;99.90
82126;DHT22;71668;51.400;6.758;2024-01-06T15:41:45;4.80;99.90
82126;DHT22;71668;51.400;6.758;2024-01-06T15:44:12;4.80;99.90
82126;DHT22;71668;51.400;6.758;2024-01-06T15:46:39;4.80;99.90
82126;DHT22;71668;51.400;6.758;2024-01-06T15:49:06;4.80;99.90
82126;DHT22;71668;51.400;6.758;2024-01-06T15:51:33;4.80;99.90
82126;DHT22;71668;51.400;6.758;2024-01-06T15:54:00;4.80;99.90
82126;DHT22;71668;51.400;6.758;2024-01-06T15:56:26;4.80;99.90
82126;DHT22;71668;51.400;6.758;2024-01-06T15:58:54;4.80;99.90
82126;DHT22;71668;51.400;6.758;2024-01-06T16:01:23;4.80;99.90
82126;DHT22;71668;51.400;6.758;2024-01-06T16:03:50;4.80;99.90
82126;DHT22;71668;51.400;6.758;2024-01-06T16:06:20;4.80;99.90
82126;DHT22;71668;51.400;6.758;2024-01-06T16:08:47;4.70;99.90
82126;DHT22;71668;51.400;6.758;2024-01-06T16:11:14;4.70;99.90
82126;DHT22;71668;51.400;6.758;2024-01-06T16:13:40;4.60;99.90
82126;DHT22;71668;51.400;6.758;2024-01-06T16:16:07;4.60;99.90
82126;DHT22;71668;51.400;6.758;2024-01-06T16:18:34;4.50;99.90
82126;DHT22;71668;51.400;6.758;2024-01-06T16:21:01;4.60;99.90
82126;DHT22;71668;51.400;6.758;2024-01-06T16:23:28;4.50;99.90
82126;DHT22;71668;51.400;6.758;2024-01-06T16:25:55;4.50;99.90
82126;DHT22;71668;51.400;6.758;2024-01-06T16:28:22;4.50;99.90
82126;DHT22;71668;51.400;6.758;2024-01-06T16:30:49;4.60;99.90
82126;DHT22;71668;51.400;6.758;2024-01-06T16:33:16;4.60;99.90
82126;DHT22;71668;51.400;6.758;2024-01-06T16:35:43;4.60;99.90
82126;DHT22;71668;51.400;6.758;2024-01-06T16:38:13;4.60;99.90
82126;DHT22;71668;51.400;6.758;2024-01-06T16:40:40;4.60;99.90
82126;DHT22;71668;51.400;6.758;2024-01-06T16:43:07;4.70;99.90
82126;DHT22;71668;51.400;6.758;2024-01-06T16:45:34;4.60;99.90
82126;DHT22;71668;51.400;6.758;2024-01-06T16:48:01;4.60;99.90
82126;DHT22;71668;51.400;6.758;2024-01-06T16:50:28;4.60;99.90
82126;DHT22;71668;51.400;6.758;2024-01-06T16:52:54;4.50;99.90
82126;DHT22;71668;51.400;6.758;2024-01-06T16:55:21;4.50;99.90
82126;DHT22;71668;51.400;6.758;2024-01-06T16:57:48;4.50;99.90
82126;DHT22;71668;51.400;6.758;2024-01-06T17:00:17;4.50;99.90
82126;DHT22;71668;51.400;6.758;2024-01-06T17:02:44;4.50;99.90
82126;DHT22;71668;51.400;6.758;2024-01-06T17:05:11;4.50;99.90
82126;DHT22;71668;51.400;6.758;2024-01-06T17:07:38;4.50;99.90
82126;DHT22;71668;51.400;6.758;2024-01-06T17:10:10;4.50;99.90
82126;DHT22;71668;51.400;6.758;2024-01-06T17:12:37;4.40;99.90
82126;DHT22;71668;51.400;6.758;2024-01-06T17:15:05;4.40;99.90
82126;DHT22;71668;51.400;6.758;2024-01-06T17:17:31;4.40;99.90
82126;DHT22;71668;51.400;6.758;2024-01-06T17:19:58;4.40;99.90
82126;DHT22;71668;51.400;6.758;2024-01-06T17:22:25;4.40;99.90
82126;DHT22;71668;51.400;6.758;2024-01-06T17:24:52;4.50;99.90
82126;DHT22;71668;51.400;6.758;2024-01-06T17:27:19;4.50;99.90
82126;DHT22;71668;51.400;6.758;2024-01-06T17:29:46;4.50;99.90
82126;DHT22;71668;51.400;6.758;2024-01-06T17:32:13;4.50;99.90
82126;DHT22;71668;51.400;6.758;2024-01-06T17:34:40;4.40;99.90
82126;DHT22;71668;51.400;6.758;2024-01-06T17:37:07;4.40;99.90
82126;DHT22;71668;51.400;6.758;2024-01-06T17:39:34;4.40;99.90
82126;DHT22;71668;51.400;6.758;2024-01-06T17:42:02;4.40;99.90
82126;DHT22;71668;51.400;6.758;2024-01-06T17:44:29;4.50;99.90
82126;DHT22;71668;51.400;6.758;2024-01-06T17:47:12;4.50;99.90
82126;DHT22;71668;51.400;6.758;2024-01-06T17:49:40;4.50;99.90
82126;DHT22;71668;51.400;6.758;2024-01-06T17:52:08;4.50;99.90
82126;DHT22;71668;51.400;6.758;2024-01-06T17:54:37;4.50;99.90
82126;DHT22;71668;51.400;6.758;2024-01-06T17:57:04;4.50;99.90
82126;DHT22;71668;51.400;6.758;2024-01-06T17:59:32;4.50;99.90
82126;DHT22;71668;51.400;6.758;2024-01-06T18:01:58;4.50;99.90
82126;DHT22;71668;51.400;6.758;2024-01-06T18:04:26;4.50;99.90
82126;DHT22;71668;51.400;6.758;2024-01-06T18:06:54;4.50;99.90
82126;DHT22;71668;51.400;6.758;2024-01-06T18:09:20;4.50;99.90
82126;DHT22;71668;51.400;6.758;2024-01-06T18:11:47;4.60;99.90
82126;DHT22;71668;51.400;6.758;2024-01-06T18:14:15;4.50;99.90
82126;DHT22;71668;51.400;6.758;2024-01-06T18:16:42;4.60;99.90
82126;DHT22;71668;51.400;6.758;2024-01-06T18:19:08;4.60;99.90
82126;DHT22;71668;51.400;6.758;2024-01-06T18:21:36;4.60;99.90
82126;DHT22;71668;51.400;6.758;2024-01-06T18:24:03;4.60;99.90
82126;DHT22;71668;51.400;6.758;2024-01-06T18:26:30;4.50;99.90
82126;DHT22;71668;51.400;6.758;2024-01-06T18:28:57;4.50;99.90
82126;DHT22;71668;51.400;6.758;2024-01-06T18:31:23;4.50;99.90
82126;DHT22;71668;51.400;6.758;2024-01-06T18:33:51;4.50;99.90
82126;DHT22;71668;51.400;6.758;2024-01-06T18:36:17;4.50;99.90
82126;DHT22;71668;51.400;6.758;2024-01-06T18:38:44;4.40;99.90
82126;DHT22;71668;51.400;6.758;2024-01-06T18:41:11;4.40;99.90
82126;DHT22;71668;51.400;6.758;2024-01-06T18:43:38;4.40;99.90
82126;DHT22;71668;51.400;6.758;2024-01-06T18:46:06;4.40;99.90
82126;DHT22;71668;51.400;6.758;2024-01-06T18:48:33;4.40;99.90
82126;DHT22;71668;51.400;6.758;2024-01-06T18:51:00;4.40;99.90
82126;DHT22;71668;51.400;6.758;2024-01-06T18:53:27;4.30;99.90
82126;DHT22;71668;51.400;6.758;2024-01-06T18:55:54;4.30;99.90
82126;DHT22;71668;51.400;6.758;2024-01-06T18:58:22;4.30;99.90
82126;DHT22;71668;51.400;6.758;2024-01-06T19:00:49;4.30;99.90
82126;DHT22;71668;51.400;6.758;2024-01-06T19:03:16;4.20;99.90
82126;DHT22;71668;51.400;6.758;2024-01-06T19:05:42;4.20;99.90
82126;DHT22;71668;51.400;6.758;2024-01-06T19:08:09;4.30;99.90
82126;DHT22;71668;51.400;6.758;2024-01-06T19:10:37;4.30;99.90
82126;DHT22;71668;51.400;6.758;2024-01-06T19:13:04;4.30;99.90
82126;DHT22;71668;51.400;6.758;2024-01-06T19:15:38;4.30;99.90
82126;DHT22;71668;51.400;6.758;2024-01-06T19:18:08;4.30;99.90
82126;DHT22;71668;51.400;6.758;2024-01-06T19:20:35;4.30;99.90
82126;DHT22;71668;51.400;6.758;2024-01-06T19:23:02;4.30;99.90
82126;DHT22;71668;51.400;6.758;2024-01-06T19:25:35;4.40;99.90
82126;DHT22;71668;51.400;6.758;2024-01-06T19:28:03;4.40;99.90
82126;DHT22;71668;51.400;6.758;2024-01-06T19:30:30;4.40;99.90
82126;DHT22;71668;51.400;6.758;2024-01-06T19:32:57;4.40;99.90
82126;DHT22;71668;51.400;6.758;2024-01-06T19:35:24;4.40;99.90
82126;DHT22;71668;51.400;6.758;2024-01-06T19:37:51;4.40;99.90
82126;DHT22;71668;51.400;6.758;2024-01-06T19:40:18;4.40;99.90
82126;DHT22;71668;51.400;6.758;2024-01-06T19:42:51;4.30;99.90
82126;DHT22;71668;51.400;6.758;2024-01-06T19:45:19;4.30;99.90
82126;DHT22;71668;51.400;6.758;2024-01-06T19:47:45;4.30;99.90
82126;DHT22;71668;51.400;6.758;2024-01-06T19:50:12;4.20;99.90
82126;DHT22;71668;51.400;6.758;2024-01-06T19:52:40;4.30;99.90
82126;DHT22;71668;51.400;6.758;2024-01-06T19:55:07;4.30;99.90
82126;DHT22;71668;51.400;6.758;2024-01-06T19:57:36;4.30;99.90
82126;DHT22;71668;51.400;6.758;2024-01-06T20:00:04;4.40;99.90
82126;DHT22;71668;51.400;6.758;2024-01-06T20:02:35;4.40;99.90
82126;DHT22;71668;51.400;6.758;2024-01-06T20:05:04;4.40;99.90
82126;DHT22;71668;51.400;6.758;2024-01-06T20:07:34;4.40;99.90
82126;DHT22;71668;51.400;6.758;2024-01-06T20:10:01;4.40;99.90
82126;DHT22;71668;51.400;6.758;2024-01-06T20:12:28;4.40;99.90
82126;DHT22;71668;51.400;6.758;2024-01-06T20:14:55;4.40;99.90
82126;DHT22;71668;51.400;6.758;2024-01-06T20:17:24;4.40;99.90
82126;DHT22;71668;51.400;6.758;2024-01-06T20:19:51;4.40;99.90
82126;DHT22;71668;51.400;6.758;2024-01-06T20:22:20;4.40;99.90
82126;DHT22;71668;51.400;6.758;2024-01-06T20:24:47;4.40;99.90
82126;DHT22;71668;51.400;6.758;2024-01-06T20:27:14;4.30;99.90
82126;DHT22;71668;51.400;6.758;2024-01-06T20:29:41;4.40;99.90
82126;DHT22;71668;51.400;6.758;2024-01-06T20:32:08;4.30;99.90
82126;DHT22;71668;51.400;6.758;2024-01-06T20:34:35;4.30;99.90
82126;DHT22;71668;51.400;6.758;2024-01-06T20:37:04;4.30;99.90
82126;DHT22;71668;51.400;6.758;2024-01-06T20:39:31;4.20;99.90
82126;DHT22;71668;51.400;6.758;2024-01-06T20:41:58;4.20;99.90
82126;DHT22;71668;51.400;6.758;2024-01-06T20:44:25;4.20;99.90
82126;DHT22;71668;51.400;6.758;2024-01-06T20:46:52;4.20;99.90
82126;DHT22;71668;51.400;6.758;2024-01-06T20:49:20;4.30;99.90
82126;DHT22;71668;51.400;6.758;2024-01-06T20:51:47;4.30;99.90
82126;DHT22;71668;51.400;6.758;2024-01-06T20:54:14;4.20;99.90
82126;DHT22;71668;51.400;6.758;2024-01-06T20:56:41;4.20;99.90
82126;DHT22;71668;51.400;6.758;2024-01-06T20:59:08;4.20;99.90
82126;DHT22;71668;51.400;6.758;2024-01-06T21:01:34;4.30;99.90
82126;DHT22;71668;51.400;6.758;2024-01-06T21:04:01;4.30;99.90
82126;DHT22;71668;51.400;6.758;2024-01-06T21:06:28;4.30;99.90
82126;DHT22;71668;51.400;6.758;2024-01-06T21:08:56;4.30;99.90
82126;DHT22;71668;51.400;6.758;2024-01-06T21:11:23;4.30;99.90
82126;DHT22;71668;51.400;6.758;2024-01-06T21:13:50;4.20;99.90
82126;DHT22;71668;51.400;6.758;2024-01-06T21:16:17;4.20;99.90
82126;DHT22;71668;51.400;6.758;2024-01-06T21:18:44;4.30;99.90
82126;DHT22;71668;51.400;6.758;2024-01-06T21:21:13;4.30;99.90
82126;DHT22;71668;51.400;6.758;2024-01-06T21:23:40;4.30;99.90
82126;DHT22;71668;51.400;6.758;2024-01-06T21:26:15;4.30;99.90
82126;DHT22;71668;51.400;6.758;2024-01-06T21:28:42;4.20;99.90
82126;DHT22;71668;51.400;6.758;2024-01-06T21:31:09;4.20;99.90
82126;DHT22;71668;51.400;6.758;2024-01-06T21:33:36;4.10;99.90
82126;DHT22;71668;51.400;6.758;2024-01-06T21:36:03;4.10;99.90
82126;DHT22;71668;51.400;6.758;2024-01-06T21:38:30;4.20;99.90
82126;DHT22;71668;51.400;6.758;2024-01-06T21:40:57;4.10;99.90
82126;DHT22;71668;51.400;6.758;2024-01-06T21:43:24;4.10;99.90
82126;DHT22;71668;51.400;6.758;2024-01-06T21:45:51;4.20;99.90
82126;DHT22;71668;51.400;6.758;2024-01-06T21:48:19;4.20;99.90
82126;DHT22;71668;51.400;6.758;2024-01-06T21:50:46;4.20;99.90
82126;DHT22;71668;51.400;6.758;2024-01-06T21:53:13;4.20;99.90
82126;DHT22;71668;51.400;6.758;2024-01-06T21:55:40;4.20;99.90
82126;DHT22;71668;51.400;6.758;2024-01-06T21:58:07;4.20;99.90
82126;DHT22;71668;51.400;6.758;2024-01-06T22:00:34;4.20;99.90
82126;DHT22;71668;51.400;6.758;2024-01-06T22:03:01;4.20;99.90
82126;DHT22;71668;51.400;6.758;2024-01-06T22:05:28;4.10;99.90
82126;DHT22;71668;51.400;6.758;2024-01-06T22:07:54;4.10;99.90
82126;DHT22;71668;51.400;6.758;2024-01-06T22:10:21;4.10;99.90
82126;DHT22;71668;51.400;6.758;2024-01-06T22:12:48;4.10;99.90
82126;DHT22;71668;51.400;6.758;2024-01-06T22:15:15;4.10;99.90
82126;DHT22;71668;51.400;6.758;2024-01-06T22:17:42;4.10;99.90
82126;DHT22;71668;51.400;6.758;2024-01-06T22:20:09;4.20;99.90
82126;DHT22;71668;51.400;6.758;2024-01-06T22:22:36;4.10;99.90
82126;DHT22;71668;51.400;6.758;2024-01-06T22:25:03;4.10;99.90
82126;DHT22;71668;51.400;6.758;2024-01-06T22:27:30;4.10;99.90
82126;DHT22;71668;51.400;6.758;2024-01-06T22:29:57;4.10;99.90
82126;DHT22;71668;51.400;6.758;2024-01-06T22:32:23;4.10;99.90
82126;DHT22;71668;51.400;6.758;2024-01-06T22:34:53;4.10;99.90
82126;DHT22;71668;51.400;6.758;2024-01-06T22:37:24;4.10;99.90
82126;DHT22;71668;51.400;6.758;2024-01-06T22:39:51;4.10;99.90
82126;DHT22;71668;51.400;6.758;2024-01-06T22:42:18;4.10;99.90
82126;DHT22;71668;51.400;6.758;2024-01-06T22:44:45;4.00;99.90
82126;DHT22;71668;51.400;6.758;2024-01-06T22:47:12;4.00;99.90
82126;DHT22;71668;51.400;6.758;2024-01-06T22:49:39;4.00;99.90
82126;DHT22;71668;51.400;6.758;2024-01-06T22:52:06;4.10;99.90
82126;DHT22;71668;51.400;6.758;2024-01-06T22:54:33;4.10;99.90
82126;DHT22;71668;51.400;6.758;2024-01-06T22:56:59;4.10;99.90
82126;DHT22;71668;51.400;6.758;2024-01-06T22:59:28;4.10;99.90
82126;DHT22;71668;51.400;6.758;2024-01-06T23:01:55;4.10;99.90
82126;DHT22;71668;51.400;6.758;2024-01-06T23:04:21;4.10;99.90
82126;DHT22;71668;51.400;6.758;2024-01-06T23:06:48;4.10;99.90
82126;DHT22;71668;51.400;6.758;2024-01-06T23:09:16;4.10;99.90
82126;DHT22;71668;51.400;6.758;2024-01-06T23:11:43;4.00;99.90
82126;DHT22;71668;51.400;6.758;2024-01-06T23:14:10;3.90;99.90
82126;DHT22;71668;51.400;6.758;2024-01-06T23:16:37;4.00;99.90
82126;DHT22;71668;51.400;6.758;2024-01-06T23:19:04;3.90;99.90
82126;DHT22;71668;51.400;6.758;2024-01-06T23:21:31;3.90;99.90
82126;DHT22;71668;51.400;6.758;2024-01-06T23:23:57;4.00;99.90
82126;DHT22;71668;51.400;6.758;2024-01-06T23:26:24;4.20;99.90
82126;DHT22;71668;51.400;6.758;2024-01-06T23:28:51;4.20;99.90
82126;DHT22;71668;51.400;6.758;2024-01-06T23:31:18;4.20;99.90
82126;DHT22;71668;51.400;6.758;2024-01-06T23:33:45;4.10;99.90
82126;DHT22;71668;51.400;6.758;2024-01-06T23:36:12;4.10;99.90
82126;DHT22;71668;51.400;6.758;2024-01-06T23:38:39;4.10;99.90
82126;DHT22;71668;51.400;6.758;2024-01-06T23:41:06;4.10;99.90
82126;DHT22;71668;51.400;6.758;2024-01-06T23:43:33;4.20;99.90
82126;DHT22;71668;51.400;6.758;2024-01-06T23:46:00;4.10;99.90
82126;DHT22;71668;51.400;6.758;2024-01-06T23:48:27;4.20;99.90
82126;DHT22;71668;51.400;6.758;2024-01-06T23:50:54;4.20;99.90
82126;DHT22;71668;51.400;6.758;2024-01-06T23:53:23;4.20;99.90
82126;DHT22;71668;51.400;6.758;2024-01-06T23:55:50;4.20;99.90
82126;DHT22;71668;51.400;6.758;2024-01-06T23:58:17;4.10;99.90
